sensor_id;sensor_type;location;lat;lon;timestamp;pressure;altitude;pressure_sealevel;temperature;humidity
22662;BME280;11497;52.222;21.246;2022-10-16T00:01:43;100521.97;;;15.08;72.46
22662;BME280;11497;52.222;21.246;2022-10-16T00:04:11;100520.56;;;15.18;72.04
22662;BME280;11497;52.222;21.246;2022-10-16T00:06:40;100524.03;;;15.19;71.80
22662;BME280;11497;52.222;21.246;2022-10-16T00:09:08;100521.09;;;15.08;72.12
22662;BME280;11497;52.222;21.246;2022-10-16T00:11:38;100528.38;;;15.03;72.48
22662;BME280;11497;52.222;21.246;2022-10-16T00:14:14;100527.94;;;15.12;72.31
22662;BME280;11497;52.222;21.246;2022-10-16T00:16:42;100530.25;;;15.01;72.81
22662;BME280;11497;52.222;21.246;2022-10-16T00:19:11;100529.94;;;15.07;72.59
22662;BME280;11497;52.222;21.246;2022-10-16T00:21:40;100527.84;;;14.96;72.71
22662;BME280;11497;52.222;21.246;2022-10-16T00:24:09;100527.53;;;15.02;72.84
22662;BME280;11497;52.222;21.246;2022-10-16T00:26:38;100524.69;;;15.07;72.55
22662;BME280;11497;52.222;21.246;2022-10-16T00:29:07;100520.63;;;15.00;72.88
22662;BME280;11497;52.222;21.246;2022-10-16T00:31:35;100523.13;;;15.03;72.82
22662;BME280;11497;52.222;21.246;2022-10-16T00:34:03;100526.84;;;14.98;73.11
22662;BME280;11497;52.222;21.246;2022-10-16T00:36:31;100525.88;;;14.82;73.53
22662;BME280;11497;52.222;21.246;2022-10-16T00:39:00;100531.56;;;14.73;74.37
22662;BME280;11497;52.222;21.246;2022-10-16T00:41:30;100524.31;;;14.78;74.63
22662;BME280;11497;52.222;21.246;2022-10-16T00:44:01;100518.56;;;14.70;75.01
22662;BME280;11497;52.222;21.246;2022-10-16T00:46:38;100518.56;;;14.70;75.54
22662;BME280;11497;52.222;21.246;2022-10-16T00:49:10;100528.34;;;14.68;75.63
22662;BME280;11497;52.222;21.246;2022-10-16T00:51:42;100535.47;;;14.66;75.71
22662;BME280;11497;52.222;21.246;2022-10-16T00:54:23;100542.56;;;14.64;76.01
22662;BME280;11497;52.222;21.246;2022-10-16T00:56:54;100540.72;;;14.66;76.16
22662;BME280;11497;52.222;21.246;2022-10-16T00:59:41;100544.91;;;14.70;76.06
22662;BME280;11497;52.222;21.246;2022-10-16T01:02:13;100544.00;;;14.71;76.11
22662;BME280;11497;52.222;21.246;2022-10-16T01:04:44;100546.91;;;14.65;75.91
22662;BME280;11497;52.222;21.246;2022-10-16T01:07:40;100527.47;;;14.68;75.82
22662;BME280;11497;52.222;21.246;2022-10-16T01:13:09;100545.53;;;14.75;75.78
22662;BME280;11497;52.222;21.246;2022-10-16T01:15:42;100560.94;;;14.66;75.82
22662;BME280;11497;52.222;21.246;2022-10-16T01:21:05;100570.63;;;14.65;76.48
22662;BME280;11497;52.222;21.246;2022-10-16T01:23:47;100571.19;;;14.53;77.68
22662;BME280;11497;52.222;21.246;2022-10-16T01:33:09;100547.00;;;14.45;78.87
22662;BME280;11497;52.222;21.246;2022-10-16T01:35:26;100559.75;;;14.33;80.12
22662;BME280;11497;52.222;21.246;2022-10-16T01:38:08;100561.59;;;14.31;80.93
22662;BME280;11497;52.222;21.246;2022-10-16T01:40:41;100565.16;;;14.30;81.33
22662;BME280;11497;52.222;21.246;2022-10-16T01:43:22;100564.19;;;14.14;82.13
22662;BME280;11497;52.222;21.246;2022-10-16T01:45:53;100580.09;;;14.30;82.52
22662;BME280;11497;52.222;21.246;2022-10-16T01:48:22;100575.28;;;14.21;82.90
22662;BME280;11497;52.222;21.246;2022-10-16T01:50:57;100574.44;;;14.20;83.54
22662;BME280;11497;52.222;21.246;2022-10-16T01:53:27;100573.81;;;13.95;84.74
22662;BME280;11497;52.222;21.246;2022-10-16T01:55:56;100577.09;;;14.00;84.97
22662;BME280;11497;52.222;21.246;2022-10-16T01:58:26;100573.53;;;14.01;85.25
22662;BME280;11497;52.222;21.246;2022-10-16T02:00:55;100580.38;;;14.05;85.82
22662;BME280;11497;52.222;21.246;2022-10-16T02:03:24;100571.91;;;13.98;85.93
22662;BME280;11497;52.222;21.246;2022-10-16T02:05:57;100556.56;;;13.88;86.37
22662;BME280;11497;52.222;21.246;2022-10-16T02:08:28;100556.75;;;13.85;86.80
22662;BME280;11497;52.222;21.246;2022-10-16T02:10:58;100564.53;;;13.86;86.99
22662;BME280;11497;52.222;21.246;2022-10-16T02:14:04;100567.09;;;13.88;87.45
22662;BME280;11497;52.222;21.246;2022-10-16T02:16:45;100566.84;;;13.94;87.38
22662;BME280;11497;52.222;21.246;2022-10-16T02:19:14;100565.97;;;13.93;87.24
22662;BME280;11497;52.222;21.246;2022-10-16T02:22:10;100564.69;;;13.83;87.70
22662;BME280;11497;52.222;21.246;2022-10-16T02:24:56;100560.44;;;13.81;88.14
22662;BME280;11497;52.222;21.246;2022-10-16T02:27:40;100555.50;;;13.73;88.35
22662;BME280;11497;52.222;21.246;2022-10-16T02:30:28;100562.72;;;13.68;88.44
22662;BME280;11497;52.222;21.246;2022-10-16T02:33:00;100557.78;;;13.60;88.78
22662;BME280;11497;52.222;21.246;2022-10-16T02:35:31;100555.03;;;13.63;89.11
22662;BME280;11497;52.222;21.246;2022-10-16T02:37:59;100552.41;;;13.63;89.41
22662;BME280;11497;52.222;21.246;2022-10-16T02:40:28;100558.13;;;13.53;89.75
22662;BME280;11497;52.222;21.246;2022-10-16T02:42:56;100559.69;;;13.57;90.05
22662;BME280;11497;52.222;21.246;2022-10-16T02:45:24;100563.31;;;13.54;90.15
22662;BME280;11497;52.222;21.246;2022-10-16T02:47:53;100563.06;;;13.60;89.53
22662;BME280;11497;52.222;21.246;2022-10-16T02:50:20;100560.81;;;13.51;89.67
22662;BME280;11497;52.222;21.246;2022-10-16T02:52:49;100560.81;;;13.51;89.68
22662;BME280;11497;52.222;21.246;2022-10-16T02:55:16;100563.19;;;13.57;89.56
22662;BME280;11497;52.222;21.246;2022-10-16T02:57:44;100552.16;;;13.70;88.87
22662;BME280;11497;52.222;21.246;2022-10-16T03:00:15;100561.09;;;13.65;88.66
22662;BME280;11497;52.222;21.246;2022-10-16T03:02:44;100565.69;;;13.60;88.80
22662;BME280;11497;52.222;21.246;2022-10-16T03:05:11;100568.56;;;13.54;88.88
22662;BME280;11497;52.222;21.246;2022-10-16T03:07:39;100565.63;;;13.62;88.61
22662;BME280;11497;52.222;21.246;2022-10-16T03:10:08;100572.00;;;13.56;88.42
22662;BME280;11497;52.222;21.246;2022-10-16T03:12:36;100575.28;;;13.61;88.32
22662;BME280;11497;52.222;21.246;2022-10-16T03:15:04;100581.47;;;13.60;87.99
22662;BME280;11497;52.222;21.246;2022-10-16T03:17:33;100577.91;;;13.61;87.98
22662;BME280;11497;52.222;21.246;2022-10-16T03:20:01;100577.00;;;13.62;88.13
22662;BME280;11497;52.222;21.246;2022-10-16T03:22:29;100583.78;;;13.68;87.66
22662;BME280;11497;52.222;21.246;2022-10-16T03:24:57;100595.16;;;13.69;87.65
22662;BME280;11497;52.222;21.246;2022-10-16T03:27:25;100602.78;;;13.75;87.11
22662;BME280;11497;52.222;21.246;2022-10-16T03:29:53;100595.94;;;13.71;86.82
22662;BME280;11497;52.222;21.246;2022-10-16T03:32:21;100595.22;;;13.67;86.63
22662;BME280;11497;52.222;21.246;2022-10-16T03:34:49;100601.47;;;13.64;86.71
22662;BME280;11497;52.222;21.246;2022-10-16T03:37:17;100603.03;;;13.69;86.84
22662;BME280;11497;52.222;21.246;2022-10-16T03:39:45;100608.16;;;13.72;87.09
22662;BME280;11497;52.222;21.246;2022-10-16T03:42:13;100603.31;;;13.83;86.11
22662;BME280;11497;52.222;21.246;2022-10-16T03:44:41;100602.38;;;13.84;85.24
22662;BME280;11497;52.222;21.246;2022-10-16T03:47:09;100603.88;;;13.89;85.15
22662;BME280;11497;52.222;21.246;2022-10-16T03:49:37;100608.97;;;13.74;84.92
22662;BME280;11497;52.222;21.246;2022-10-16T03:52:05;100602.66;;;13.78;85.16
22662;BME280;11497;52.222;21.246;2022-10-16T03:54:32;100602.38;;;13.84;84.70
22662;BME280;11497;52.222;21.246;2022-10-16T03:57:00;100604.50;;;13.76;84.68
22662;BME280;11497;52.222;21.246;2022-10-16T03:59:28;100607.25;;;13.73;84.52
22662;BME280;11497;52.222;21.246;2022-10-16T04:01:56;100606.84;;;13.82;84.44
22662;BME280;11497;52.222;21.246;2022-10-16T04:04:24;100612.19;;;13.80;84.34
22662;BME280;11497;52.222;21.246;2022-10-16T04:06:52;100612.38;;;13.76;84.31
22662;BME280;11497;52.222;21.246;2022-10-16T04:09:20;100616.47;;;13.83;84.26
22662;BME280;11497;52.222;21.246;2022-10-16T04:11:48;100609.50;;;13.82;84.19
22662;BME280;11497;52.222;21.246;2022-10-16T04:14:16;100621.84;;;13.80;83.89
22662;BME280;11497;52.222;21.246;2022-10-16T04:16:44;100612.06;;;13.83;83.56
22662;BME280;11497;52.222;21.246;2022-10-16T04:19:12;100609.38;;;13.85;83.61
22662;BME280;11497;52.222;21.246;2022-10-16T04:21:40;100608.81;;;13.77;83.84
22662;BME280;11497;52.222;21.246;2022-10-16T04:24:07;100605.38;;;13.95;83.24
22662;BME280;11497;52.222;21.246;2022-10-16T04:26:35;100605.81;;;13.86;82.97
22662;BME280;11497;52.222;21.246;2022-10-16T04:29:03;100606.72;;;13.85;82.83
22662;BME280;11497;52.222;21.246;2022-10-16T04:31:31;100608.81;;;13.77;83.21
22662;BME280;11497;52.222;21.246;2022-10-16T04:33:59;100616.19;;;13.69;83.23
22662;BME280;11497;52.222;21.246;2022-10-16T04:36:27;100611.47;;;13.77;82.95
22662;BME280;11497;52.222;21.246;2022-10-16T04:38:55;100620.13;;;13.79;82.66
22662;BME280;11497;52.222;21.246;2022-10-16T04:41:23;100630.78;;;13.76;83.01
22662;BME280;11497;52.222;21.246;2022-10-16T04:43:51;100629.34;;;13.69;82.89
22662;BME280;11497;52.222;21.246;2022-10-16T04:46:19;100627.09;;;13.59;82.93
22662;BME280;11497;52.222;21.246;2022-10-16T04:48:47;100626.69;;;13.48;83.41
22662;BME280;11497;52.222;21.246;2022-10-16T04:51:15;100624.50;;;13.38;83.63
22662;BME280;11497;52.222;21.246;2022-10-16T04:53:42;100622.44;;;13.24;83.98
22662;BME280;11497;52.222;21.246;2022-10-16T04:56:10;100631.38;;;13.20;84.72
22662;BME280;11497;52.222;21.246;2022-10-16T04:58:38;100631.25;;;13.23;85.07
22662;BME280;11497;52.222;21.246;2022-10-16T05:01:06;100639.56;;;13.11;85.22
22662;BME280;11497;52.222;21.246;2022-10-16T05:03:34;100634.91;;;13.19;85.64
22662;BME280;11497;52.222;21.246;2022-10-16T05:06:04;100645.91;;;13.28;85.59
22662;BME280;11497;52.222;21.246;2022-10-16T05:08:32;100643.22;;;13.30;85.53
22662;BME280;11497;52.222;21.246;2022-10-16T05:11:00;100639.84;;;13.26;85.74
22662;BME280;11497;52.222;21.246;2022-10-16T05:13:29;100643.50;;;13.44;85.29
22662;BME280;11497;52.222;21.246;2022-10-16T05:15:56;100647.72;;;13.48;84.97
22662;BME280;11497;52.222;21.246;2022-10-16T05:18:24;100641.94;;;13.40;84.71
22662;BME280;11497;52.222;21.246;2022-10-16T05:20:52;100646.13;;;13.44;84.67
22662;BME280;11497;52.222;21.246;2022-10-16T05:23:20;100650.94;;;13.35;84.96
22662;BME280;11497;52.222;21.246;2022-10-16T05:25:55;100651.66;;;13.38;84.96
22662;BME280;11497;52.222;21.246;2022-10-16T05:28:27;100657.56;;;13.43;85.18
22662;BME280;11497;52.222;21.246;2022-10-16T05:30:55;100661.16;;;13.62;84.59
22662;BME280;11497;52.222;21.246;2022-10-16T05:33:25;100666.41;;;13.62;83.90
22662;BME280;11497;52.222;21.246;2022-10-16T05:35:53;100674.63;;;13.55;84.03
22662;BME280;11497;52.222;21.246;2022-10-16T05:38:20;100683.78;;;13.67;83.95
22662;BME280;11497;52.222;21.246;2022-10-16T05:40:52;100678.41;;;13.70;84.03
22662;BME280;11497;52.222;21.246;2022-10-16T05:43:21;100679.47;;;13.86;83.47
22662;BME280;11497;52.222;21.246;2022-10-16T05:46:00;100677.16;;;13.98;82.84
22662;BME280;11497;52.222;21.246;2022-10-16T05:48:28;100675.00;;;14.08;82.15
22662;BME280;11497;52.222;21.246;2022-10-16T05:51:01;100671.44;;;14.09;81.41
22662;BME280;11497;52.222;21.246;2022-10-16T05:53:30;100672.28;;;14.10;81.32
22662;BME280;11497;52.222;21.246;2022-10-16T05:55:59;100672.16;;;14.13;81.14
22662;BME280;11497;52.222;21.246;2022-10-16T05:58:31;100672.56;;;14.04;81.44
22662;BME280;11497;52.222;21.246;2022-10-16T06:01:05;100671.81;;;14.00;81.13
22662;BME280;11497;52.222;21.246;2022-10-16T06:03:35;100677.75;;;13.85;81.24
22662;BME280;11497;52.222;21.246;2022-10-16T06:06:10;100677.75;;;13.85;81.58
22662;BME280;11497;52.222;21.246;2022-10-16T06:08:39;100695.88;;;13.71;81.54
22662;BME280;11497;52.222;21.246;2022-10-16T06:11:09;100697.34;;;13.78;81.90
22662;BME280;11497;52.222;21.246;2022-10-16T06:13:37;100699.13;;;13.77;82.04
22662;BME280;11497;52.222;21.246;2022-10-16T06:16:07;100702.13;;;13.88;82.16
22662;BME280;11497;52.222;21.246;2022-10-16T06:18:34;100712.22;;;13.99;81.67
22662;BME280;11497;52.222;21.246;2022-10-16T06:21:12;100706.63;;;14.68;80.62
22662;BME280;11497;52.222;21.246;2022-10-16T06:23:41;100706.50;;;15.44;77.41
22662;BME280;11497;52.222;21.246;2022-10-16T06:26:11;100709.59;;;15.35;75.37
22662;BME280;11497;52.222;21.246;2022-10-16T06:28:40;100705.56;;;15.09;74.98
22662;BME280;11497;52.222;21.246;2022-10-16T06:31:09;100714.19;;;14.94;75.16
22662;BME280;11497;52.222;21.246;2022-10-16T06:33:38;100709.03;;;14.91;75.69
22662;BME280;11497;52.222;21.246;2022-10-16T06:36:08;100708.59;;;14.81;75.76
22662;BME280;11497;52.222;21.246;2022-10-16T06:38:37;100711.97;;;14.66;76.04
22662;BME280;11497;52.222;21.246;2022-10-16T06:41:07;100716.16;;;14.70;76.11
22662;BME280;11497;52.222;21.246;2022-10-16T06:43:35;100710.59;;;14.76;76.35
22662;BME280;11497;52.222;21.246;2022-10-16T06:46:05;100722.22;;;14.72;76.11
22662;BME280;11497;52.222;21.246;2022-10-16T06:48:34;100723.84;;;14.75;75.84
22662;BME280;11497;52.222;21.246;2022-10-16T06:51:21;100721.44;;;14.70;76.12
22662;BME280;11497;52.222;21.246;2022-10-16T06:53:52;100731.13;;;14.70;75.94
22662;BME280;11497;52.222;21.246;2022-10-16T06:56:31;100722.13;;;14.74;75.70
22662;BME280;11497;52.222;21.246;2022-10-16T06:59:00;100723.75;;;14.76;75.83
22662;BME280;11497;52.222;21.246;2022-10-16T07:01:28;100734.22;;;14.78;75.65
22662;BME280;11497;52.222;21.246;2022-10-16T07:03:56;100723.06;;;14.91;75.35
22662;BME280;11497;52.222;21.246;2022-10-16T07:06:26;100727.28;;;14.95;75.18
22662;BME280;11497;52.222;21.246;2022-10-16T07:08:53;100740.59;;;14.92;75.16
22662;BME280;11497;52.222;21.246;2022-10-16T07:11:23;100742.69;;;15.05;74.63
22662;BME280;11497;52.222;21.246;2022-10-16T07:13:51;100738.53;;;15.18;74.57
22662;BME280;11497;52.222;21.246;2022-10-16T07:16:33;100743.84;;;15.54;73.76
22662;BME280;11497;52.222;21.246;2022-10-16T07:19:02;100754.50;;;16.06;72.11
22662;BME280;11497;52.222;21.246;2022-10-16T07:21:33;100757.16;;;16.23;70.65
22662;BME280;11497;52.222;21.246;2022-10-16T07:24:06;100766.94;;;16.38;69.84
22662;BME280;11497;52.222;21.246;2022-10-16T07:26:36;100765.53;;;16.31;69.55
22662;BME280;11497;52.222;21.246;2022-10-16T07:29:19;100767.88;;;16.20;69.07
22662;BME280;11497;52.222;21.246;2022-10-16T07:31:49;100766.84;;;16.22;69.28
22662;BME280;11497;52.222;21.246;2022-10-16T07:34:18;100773.84;;;16.23;69.35
22662;BME280;11497;52.222;21.246;2022-10-16T07:36:50;100770.59;;;16.18;69.54
22662;BME280;11497;52.222;21.246;2022-10-16T07:39:18;100769.03;;;16.14;69.65
22662;BME280;11497;52.222;21.246;2022-10-16T07:41:46;100765.31;;;16.36;68.88
22662;BME280;11497;52.222;21.246;2022-10-16T07:44:15;100759.22;;;16.51;68.88
22662;BME280;11497;52.222;21.246;2022-10-16T07:46:42;100753.44;;;16.60;68.83
22662;BME280;11497;52.222;21.246;2022-10-16T07:49:10;100750.50;;;16.83;68.45
22662;BME280;11497;52.222;21.246;2022-10-16T07:51:38;100753.91;;;17.01;67.84
22662;BME280;11497;52.222;21.246;2022-10-16T07:54:07;100759.25;;;17.48;66.59
22662;BME280;11497;52.222;21.246;2022-10-16T07:56:35;100760.53;;;17.73;65.81
22662;BME280;11497;52.222;21.246;2022-10-16T07:59:09;100747.81;;;18.53;64.56
22662;BME280;11497;52.222;21.246;2022-10-16T08:01:37;100740.84;;;21.06;60.00
22662;BME280;11497;52.222;21.246;2022-10-16T08:04:05;100732.53;;;23.52;52.51
22662;BME280;11497;52.222;21.246;2022-10-16T08:06:37;100743.78;;;25.03;47.87
22662;BME280;11497;52.222;21.246;2022-10-16T08:09:05;100737.03;;;25.09;44.74
22662;BME280;11497;52.222;21.246;2022-10-16T08:11:33;100738.25;;;24.23;44.61
22662;BME280;11497;52.222;21.246;2022-10-16T08:14:02;100741.03;;;24.21;44.78
22662;BME280;11497;52.222;21.246;2022-10-16T08:16:30;100753.78;;;24.80;43.75
22662;BME280;11497;52.222;21.246;2022-10-16T08:18:57;100754.13;;;26.35;41.76
22662;BME280;11497;52.222;21.246;2022-10-16T08:21:25;100760.88;;;27.60;39.10
22662;BME280;11497;52.222;21.246;2022-10-16T08:23:53;100755.34;;;27.97;37.50
22662;BME280;11497;52.222;21.246;2022-10-16T08:26:26;100752.59;;;27.71;36.53
22662;BME280;11497;52.222;21.246;2022-10-16T08:28:55;100764.25;;;28.33;35.94
22662;BME280;11497;52.222;21.246;2022-10-16T08:31:24;100771.31;;;27.80;36.05
22662;BME280;11497;52.222;21.246;2022-10-16T08:33:53;100769.03;;;27.68;36.20
22662;BME280;11497;52.222;21.246;2022-10-16T08:36:21;100763.91;;;26.82;36.86
22662;BME280;11497;52.222;21.246;2022-10-16T08:38:50;100779.59;;;25.52;38.37
22662;BME280;11497;52.222;21.246;2022-10-16T08:44:18;100784.22;;;26.38;38.19
22662;BME280;11497;52.222;21.246;2022-10-16T08:49:32;100776.72;;;24.11;41.39
22662;BME280;11497;52.222;21.246;2022-10-16T08:52:00;100772.44;;;23.00;42.96
22662;BME280;11497;52.222;21.246;2022-10-16T08:54:42;100770.91;;;22.51;44.58
22662;BME280;11497;52.222;21.246;2022-10-16T08:57:20;100775.72;;;21.39;46.71
22662;BME280;11497;52.222;21.246;2022-10-16T08:59:52;100777.16;;;21.56;47.66
22662;BME280;11497;52.222;21.246;2022-10-16T09:02:32;100778.84;;;21.20;48.97
22662;BME280;11497;52.222;21.246;2022-10-16T09:07:39;100793.84;;;21.34;49.77
22662;BME280;11497;52.222;21.246;2022-10-16T09:10:11;100789.56;;;21.44;49.98
22662;BME280;11497;52.222;21.246;2022-10-16T09:15:44;100785.97;;;21.20;50.34
22662;BME280;11497;52.222;21.246;2022-10-16T09:18:20;100797.25;;;21.23;50.59
22662;BME280;11497;52.222;21.246;2022-10-16T09:23:39;100802.41;;;21.87;49.59
22662;BME280;11497;52.222;21.246;2022-10-16T09:26:12;100799.63;;;21.88;49.11
22662;BME280;11497;52.222;21.246;2022-10-16T09:28:41;100796.88;;;21.77;49.78
22662;BME280;11497;52.222;21.246;2022-10-16T09:31:21;100785.44;;;22.58;48.92
22662;BME280;11497;52.222;21.246;2022-10-16T09:33:59;100779.59;;;23.33;47.32
22662;BME280;11497;52.222;21.246;2022-10-16T09:36:28;100775.06;;;24.51;45.51
22662;BME280;11497;52.222;21.246;2022-10-16T09:39:08;100770.94;;;25.29;43.09
22662;BME280;11497;52.222;21.246;2022-10-16T09:41:38;100776.50;;;25.16;42.37
22662;BME280;11497;52.222;21.246;2022-10-16T09:44:30;100771.81;;;24.78;42.63
22662;BME280;11497;52.222;21.246;2022-10-16T09:47:14;100768.59;;;24.54;42.83
22662;BME280;11497;52.222;21.246;2022-10-16T09:52:20;100777.13;;;23.95;44.13
22662;BME280;11497;52.222;21.246;2022-10-16T09:54:52;100769.34;;;23.92;44.75
22662;BME280;11497;52.222;21.246;2022-10-16T09:57:21;100777.16;;;23.18;44.98
22662;BME280;11497;52.222;21.246;2022-10-16T09:59:55;100777.91;;;22.87;46.19
22662;BME280;11497;52.222;21.246;2022-10-16T10:02:35;100774.13;;;22.78;46.96
22662;BME280;11497;52.222;21.246;2022-10-16T10:05:05;100780.31;;;22.79;47.15
22662;BME280;11497;52.222;21.246;2022-10-16T10:07:44;100780.09;;;22.82;47.30
22662;BME280;11497;52.222;21.246;2022-10-16T10:10:25;100779.22;;;22.81;47.89
22662;BME280;11497;52.222;21.246;2022-10-16T10:12:55;100769.72;;;22.77;48.12
22662;BME280;11497;52.222;21.246;2022-10-16T10:15:24;100769.28;;;22.95;47.99
22662;BME280;11497;52.222;21.246;2022-10-16T10:17:56;100771.47;;;22.89;47.77
22662;BME280;11497;52.222;21.246;2022-10-16T10:20:28;100772.69;;;22.85;47.97
22662;BME280;11497;52.222;21.246;2022-10-16T10:22:57;100788.19;;;23.03;48.04
22662;BME280;11497;52.222;21.246;2022-10-16T10:33:41;100771.88;;;22.04;49.63
22662;BME280;11497;52.222;21.246;2022-10-16T10:36:31;100776.66;;;21.75;50.28
22662;BME280;11497;52.222;21.246;2022-10-16T10:39:22;100766.84;;;21.75;50.43
22662;BME280;11497;52.222;21.246;2022-10-16T10:50:48;100746.78;;;21.82;50.85
22662;BME280;11497;52.222;21.246;2022-10-16T10:56:35;100751.38;;;21.56;51.94
22662;BME280;11497;52.222;21.246;2022-10-16T11:01:49;100758.56;;;21.67;52.00
22662;BME280;11497;52.222;21.246;2022-10-16T11:04:50;100758.50;;;21.80;52.29
22662;BME280;11497;52.222;21.246;2022-10-16T11:07:39;100767.16;;;22.07;52.13
22662;BME280;11497;52.222;21.246;2022-10-16T11:10:24;100755.09;;;22.26;51.49
22662;BME280;11497;52.222;21.246;2022-10-16T11:13:21;100756.78;;;22.27;51.38
22662;BME280;11497;52.222;21.246;2022-10-16T11:15:54;100746.59;;;22.20;51.19
22662;BME280;11497;52.222;21.246;2022-10-16T11:18:30;100741.00;;;22.23;51.03
22662;BME280;11497;52.222;21.246;2022-10-16T11:21:07;100733.91;;;22.00;51.28
22662;BME280;11497;52.222;21.246;2022-10-16T11:26:16;100751.78;;;21.63;51.76
22662;BME280;11497;52.222;21.246;2022-10-16T11:28:54;100745.25;;;21.43;52.19
22662;BME280;11497;52.222;21.246;2022-10-16T11:31:37;100746.00;;;21.45;52.30
22662;BME280;11497;52.222;21.246;2022-10-16T11:34:26;100751.66;;;21.41;52.63
22662;BME280;11497;52.222;21.246;2022-10-16T11:37:20;100756.72;;;21.56;52.42
22662;BME280;11497;52.222;21.246;2022-10-16T11:39:54;100755.91;;;21.67;52.71
22662;BME280;11497;52.222;21.246;2022-10-16T11:42:38;100760.28;;;21.92;52.54
22662;BME280;11497;52.222;21.246;2022-10-16T11:45:24;100755.13;;;22.02;51.98
22662;BME280;11497;52.222;21.246;2022-10-16T11:48:07;100762.59;;;21.73;52.28
22662;BME280;11497;52.222;21.246;2022-10-16T11:50:46;100758.34;;;21.70;52.26
22662;BME280;11497;52.222;21.246;2022-10-16T11:53:29;100757.84;;;21.89;52.30
22662;BME280;11497;52.222;21.246;2022-10-16T11:56:01;100764.88;;;21.90;52.47
22662;BME280;11497;52.222;21.246;2022-10-16T11:58:35;100753.97;;;21.93;52.33
22662;BME280;11497;52.222;21.246;2022-10-16T12:01:21;100757.78;;;21.78;51.96
22662;BME280;11497;52.222;21.246;2022-10-16T12:06:53;100752.97;;;21.59;52.21
22662;BME280;11497;52.222;21.246;2022-10-16T12:09:31;100737.78;;;21.48;52.39
22662;BME280;11497;52.222;21.246;2022-10-16T12:12:00;100749.97;;;21.64;52.61
22662;BME280;11497;52.222;21.246;2022-10-16T12:14:36;100745.53;;;21.75;52.79
22662;BME280;11497;52.222;21.246;2022-10-16T12:17:36;100750.84;;;21.75;52.75
22662;BME280;11497;52.222;21.246;2022-10-16T12:22:55;100753.84;;;21.71;52.31
22662;BME280;11497;52.222;21.246;2022-10-16T12:25:29;100745.84;;;21.60;52.62
22662;BME280;11497;52.222;21.246;2022-10-16T12:30:29;100752.56;;;21.76;52.54
22662;BME280;11497;52.222;21.246;2022-10-16T12:33:15;100749.63;;;21.92;52.13
22662;BME280;11497;52.222;21.246;2022-10-16T12:35:47;100760.16;;;21.94;51.97
22662;BME280;11497;52.222;21.246;2022-10-16T12:38:47;100763.91;;;21.91;52.46
22662;BME280;11497;52.222;21.246;2022-10-16T12:41:27;100762.72;;;21.95;51.82
22662;BME280;11497;52.222;21.246;2022-10-16T12:43:56;100762.28;;;22.01;52.25
22662;BME280;11497;52.222;21.246;2022-10-16T12:51:41;100761.81;;;21.83;52.54
22662;BME280;11497;52.222;21.246;2022-10-16T12:54:20;100764.75;;;21.68;52.79
22662;BME280;11497;52.222;21.246;2022-10-16T13:00:36;100780.78;;;21.55;53.22
22662;BME280;11497;52.222;21.246;2022-10-16T13:03:33;100786.38;;;21.39;53.38
22662;BME280;11497;52.222;21.246;2022-10-16T13:12:07;100780.88;;;21.04;54.53
22662;BME280;11497;52.222;21.246;2022-10-16T13:15:11;100786.41;;;20.88;54.68
22662;BME280;11497;52.222;21.246;2022-10-16T13:17:53;100786.22;;;20.66;55.36
22662;BME280;11497;52.222;21.246;2022-10-16T13:28:31;100781.75;;;20.54;56.72
22662;BME280;11497;52.222;21.246;2022-10-16T13:31:01;100781.53;;;20.57;56.85
22662;BME280;11497;52.222;21.246;2022-10-16T13:33:35;100786.22;;;20.53;57.07
22662;BME280;11497;52.222;21.246;2022-10-16T13:36:05;100788.97;;;20.52;57.49
22662;BME280;11497;52.222;21.246;2022-10-16T13:38:35;100787.88;;;20.42;57.31
22662;BME280;11497;52.222;21.246;2022-10-16T13:41:15;100800.88;;;20.46;57.41
22662;BME280;11497;52.222;21.246;2022-10-16T13:43:49;100796.78;;;20.28;57.74
22662;BME280;11497;52.222;21.246;2022-10-16T13:46:23;100805.28;;;20.20;57.95
22662;BME280;11497;52.222;21.246;2022-10-16T13:49:10;100792.94;;;20.19;58.28
22662;BME280;11497;52.222;21.246;2022-10-16T13:51:39;100790.56;;;20.15;58.47
22662;BME280;11497;52.222;21.246;2022-10-16T13:54:10;100801.56;;;19.96;58.79
22662;BME280;11497;52.222;21.246;2022-10-16T13:56:39;100809.88;;;20.04;58.88
22662;BME280;11497;52.222;21.246;2022-10-16T13:59:41;100808.38;;;20.00;59.23
22662;BME280;11497;52.222;21.246;2022-10-16T14:04:43;100808.66;;;19.83;59.95
22662;BME280;11497;52.222;21.246;2022-10-16T14:07:18;100800.50;;;19.86;59.89
22662;BME280;11497;52.222;21.246;2022-10-16T14:09:50;100795.56;;;19.80;60.56
22662;BME280;11497;52.222;21.246;2022-10-16T14:12:18;100794.63;;;19.81;60.89
22662;BME280;11497;52.222;21.246;2022-10-16T14:14:53;100797.44;;;19.92;60.96
22662;BME280;11497;52.222;21.246;2022-10-16T14:17:31;100797.44;;;19.92;60.63
22662;BME280;11497;52.222;21.246;2022-10-16T14:20:04;100796.69;;;19.90;61.13
22662;BME280;11497;52.222;21.246;2022-10-16T14:22:40;100799.84;;;19.95;60.73
22662;BME280;11497;52.222;21.246;2022-10-16T14:28:18;100797.97;;;19.97;60.63
22662;BME280;11497;52.222;21.246;2022-10-16T14:30:58;100802.59;;;19.81;61.54
22662;BME280;11497;52.222;21.246;2022-10-16T14:36:17;100816.81;;;19.80;61.71
22662;BME280;11497;52.222;21.246;2022-10-16T14:39:06;100828.03;;;19.71;61.71
22662;BME280;11497;52.222;21.246;2022-10-16T14:41:49;100818.91;;;19.75;61.83
22662;BME280;11497;52.222;21.246;2022-10-16T14:44:24;100825.75;;;19.65;61.92